CPA431 RCKH-VHHH
Flight info
| Callsign | CPA431 |
|---|---|
| Flight time | 1h 1m |
| Altitude | 34000 |
| Route | PARAS1B PARAS T7 WP521 G581 ELATO V522 ABBEY |
| Aircraft | A359/H-SDE2E3GHIJ1J3J4J5LM1ORWXY/LB1D1 |
Departure
| Time | 2026-04-18 07:21 |
|---|---|
| Airport | Kaohsiung International Airport (RCKH) |
Arrival
| Time | 2026-04-18 08:23 |
|---|---|
| Airport | Hong Kong International Airport (VHHH) |
| Time | Latitude | Longitude | Altitude | Speed | Heading |
|---|---|---|---|---|---|
| 2026-04-18 06:56 | 22.57266 | 120.34234 | 45 ft | 0 kts | 271° |
| 2026-04-18 07:10 | 22.57266 | 120.34235 | 44 ft | 0 kts | 271° |
| 2026-04-18 07:10 | 22.57266 | 120.34248 | 44 ft | 3 kts | 270° |
| 2026-04-18 07:10 | 22.57266 | 120.34270 | 44 ft | 3 kts | 269° |
| 2026-04-18 07:10 | 22.57266 | 120.34290 | 44 ft | 2 kts | 270° |
| 2026-04-18 07:11 | 22.57266 | 120.34307 | 44 ft | 3 kts | 291° |
| 2026-04-18 07:11 | 22.57256 | 120.34321 | 44 ft | 3 kts | 341° |
| 2026-04-18 07:11 | 22.57237 | 120.34325 | 44 ft | 3 kts | 1° |
| 2026-04-18 07:11 | 22.57223 | 120.34324 | 44 ft | 1 kts | 1° |
| 2026-04-18 07:12 | 22.57219 | 120.34324 | 44 ft | 0 kts | 1° |
| 2026-04-18 07:15 | 22.57221 | 120.34324 | 44 ft | 1 kts | 1° |
| 2026-04-18 07:15 | 22.57258 | 120.34325 | 44 ft | 9 kts | 1° |
| 2026-04-18 07:16 | 22.57340 | 120.34326 | 44 ft | 15 kts | 359° |
| 2026-04-18 07:16 | 22.57390 | 120.34351 | 44 ft | 5 kts | 64° |
| 2026-04-18 07:16 | 22.57400 | 120.34406 | 44 ft | 10 kts | 93° |
| 2026-04-18 07:16 | 22.57396 | 120.34504 | 45 ft | 16 kts | 92° |
| 2026-04-18 07:17 | 22.57432 | 120.34608 | 45 ft | 16 kts | 22° |
| 2026-04-18 07:17 | 22.57534 | 120.34650 | 45 ft | 16 kts | 54° |
| 2026-04-18 07:17 | 22.57547 | 120.34775 | 45 ft | 18 kts | 92° |
| 2026-04-18 07:17 | 22.57542 | 120.34923 | 44 ft | 21 kts | 91° |
| 2026-04-18 07:18 | 22.57537 | 120.35091 | 44 ft | 24 kts | 92° |
| 2026-04-18 07:18 | 22.57531 | 120.35276 | 44 ft | 26 kts | 92° |
| 2026-04-18 07:18 | 22.57525 | 120.35479 | 44 ft | 28 kts | 92° |
| 2026-04-18 07:18 | 22.57518 | 120.35698 | 44 ft | 30 kts | 92° |
| 2026-04-18 07:19 | 22.57511 | 120.35931 | 45 ft | 32 kts | 92° |
| 2026-04-18 07:19 | 22.57504 | 120.36175 | 45 ft | 33 kts | 92° |
| 2026-04-18 07:19 | 22.57499 | 120.36342 | 45 ft | 21 kts | 92° |
| 2026-04-18 07:19 | 22.57498 | 120.36473 | 45 ft | 13 kts | 76° |
| 2026-04-18 07:20 | 22.57568 | 120.36523 | 45 ft | 13 kts | 9° |
| 2026-04-18 07:20 | 22.57652 | 120.36500 | 45 ft | 8 kts | 309° |
| 2026-04-18 07:20 | 22.57662 | 120.36453 | 45 ft | 7 kts | 275° |
| 2026-04-18 07:20 | 22.57664 | 120.36393 | 46 ft | 9 kts | 272° |
| 2026-04-18 07:21 | 22.57667 | 120.36307 | 46 ft | 24 kts | 272° |
| 2026-04-18 07:21 | 22.57682 | 120.35824 | 46 ft | 102 kts | 271° |
| 2026-04-18 07:21 | 22.57710 | 120.34817 | 68 ft | 162 kts | 270° |
| 2026-04-18 07:21 | 22.57697 | 120.33631 | 875 ft | 156 kts | 269° |
| 2026-04-18 07:22 | 22.57697 | 120.32454 | 1672 ft | 159 kts | 270° |
| 2026-04-18 07:22 | 22.57727 | 120.31218 | 1986 ft | 175 kts | 271° |
| 2026-04-18 07:22 | 22.57768 | 120.29813 | 2205 ft | 198 kts | 270° |
| 2026-04-18 07:22 | 22.57812 | 120.28236 | 2521 ft | 222 kts | 270° |
| 2026-04-18 07:23 | 22.57857 | 120.26475 | 3018 ft | 243 kts | 270° |
| 2026-04-18 07:23 | 22.57631 | 120.24649 | 3824 ft | 250 kts | 248° |
| 2026-04-18 07:23 | 22.56632 | 120.23087 | 4675 ft | 257 kts | 228° |
| 2026-04-18 07:23 | 22.55396 | 120.21694 | 5443 ft | 264 kts | 226° |
| 2026-04-18 07:24 | 22.54093 | 120.20266 | 6254 ft | 269 kts | 226° |
| 2026-04-18 07:24 | 22.52772 | 120.18803 | 7074 ft | 274 kts | 226° |
| 2026-04-18 07:24 | 22.51437 | 120.17316 | 7805 ft | 277 kts | 226° |
| 2026-04-18 07:24 | 22.50091 | 120.15802 | 8625 ft | 281 kts | 226° |
| 2026-04-18 07:25 | 22.48731 | 120.14260 | 9428 ft | 284 kts | 227° |
| 2026-04-18 07:25 | 22.47365 | 120.12693 | 10238 ft | 288 kts | 229° |
| 2026-04-18 07:25 | 22.46445 | 120.11621 | 10565 ft | 300 kts | 229° |
| 2026-04-18 07:25 | 22.44473 | 120.09338 | 11061 ft | 326 kts | 228° |
| 2026-04-18 07:26 | 22.42870 | 120.07495 | 11430 ft | 344 kts | 229° |
| 2026-04-18 07:26 | 22.41342 | 120.05467 | 11995 ft | 351 kts | 235° |
| 2026-04-18 07:26 | 22.40392 | 120.04040 | 12484 ft | 353 kts | 236° |
| 2026-04-18 07:26 | 22.38966 | 120.01851 | 13221 ft | 358 kts | 236° |
| 2026-04-18 07:27 | 22.37524 | 119.99634 | 13920 ft | 361 kts | 236° |
| 2026-04-18 07:27 | 22.36068 | 119.97399 | 14596 ft | 365 kts | 236° |
| 2026-04-18 07:27 | 22.34593 | 119.95141 | 15272 ft | 369 kts | 236° |
| 2026-04-18 07:27 | 22.33107 | 119.92867 | 15909 ft | 372 kts | 236° |
| 2026-04-18 07:28 | 22.31624 | 119.90600 | 16563 ft | 375 kts | 236° |
| 2026-04-18 07:28 | 22.30111 | 119.88288 | 17194 ft | 378 kts | 236° |
| 2026-04-18 07:28 | 22.28580 | 119.85952 | 17808 ft | 382 kts | 236° |
| 2026-04-18 07:28 | 22.27038 | 119.83599 | 18416 ft | 385 kts | 236° |
| 2026-04-18 07:29 | 22.25481 | 119.81225 | 19003 ft | 388 kts | 236° |
| 2026-04-18 07:29 | 22.23917 | 119.78840 | 19623 ft | 391 kts | 236° |
| 2026-04-18 07:29 | 22.22378 | 119.76449 | 20207 ft | 393 kts | 238° |
| 2026-04-18 07:29 | 22.21050 | 119.73820 | 20775 ft | 395 kts | 247° |
| 2026-04-18 07:30 | 22.20157 | 119.71054 | 21372 ft | 396 kts | 253° |
| 2026-04-18 07:30 | 22.19437 | 119.68170 | 21914 ft | 400 kts | 256° |
| 2026-04-18 07:30 | 22.18798 | 119.65232 | 22453 ft | 402 kts | 257° |
| 2026-04-18 07:30 | 22.18191 | 119.62272 | 22978 ft | 405 kts | 257° |
| 2026-04-18 07:31 | 22.17585 | 119.59288 | 23491 ft | 407 kts | 257° |
| 2026-04-18 07:31 | 22.16975 | 119.56331 | 23973 ft | 410 kts | 257° |
| 2026-04-18 07:31 | 22.16407 | 119.53306 | 24450 ft | 413 kts | 261° |
| 2026-04-18 07:31 | 22.16126 | 119.50212 | 24975 ft | 415 kts | 265° |
| 2026-04-18 07:32 | 22.15964 | 119.47079 | 25501 ft | 418 kts | 266° |
| 2026-04-18 07:32 | 22.15855 | 119.43928 | 26049 ft | 420 kts | 267° |
| 2026-04-18 07:32 | 22.15772 | 119.40762 | 26604 ft | 423 kts | 267° |
| 2026-04-18 07:32 | 22.15698 | 119.37583 | 27150 ft | 425 kts | 267° |
| 2026-04-18 07:33 | 22.15624 | 119.34423 | 27679 ft | 427 kts | 267° |
| 2026-04-18 07:33 | 22.15545 | 119.31202 | 28250 ft | 429 kts | 267° |
| 2026-04-18 07:33 | 22.15462 | 119.27973 | 28767 ft | 431 kts | 266° |
| 2026-04-18 07:33 | 22.15374 | 119.24728 | 29260 ft | 434 kts | 266° |
| 2026-04-18 07:34 | 22.15283 | 119.21468 | 29707 ft | 437 kts | 266° |
| 2026-04-18 07:34 | 22.15190 | 119.18174 | 30181 ft | 438 kts | 266° |
| 2026-04-18 07:34 | 22.15097 | 119.14914 | 30594 ft | 441 kts | 266° |
| 2026-04-18 07:34 | 22.15003 | 119.11592 | 30967 ft | 445 kts | 266° |
| 2026-04-18 07:35 | 22.15101 | 119.08233 | 31319 ft | 449 kts | 273° |
| 2026-04-18 07:35 | 22.15422 | 119.04867 | 31712 ft | 452 kts | 274° |
| 2026-04-18 07:35 | 22.15797 | 119.01488 | 32052 ft | 454 kts | 274° |
| 2026-04-18 07:35 | 22.16201 | 118.98096 | 32369 ft | 457 kts | 275° |
| 2026-04-18 07:36 | 22.16621 | 118.94721 | 32690 ft | 459 kts | 275° |
| 2026-04-18 07:36 | 22.17046 | 118.91286 | 32996 ft | 462 kts | 275° |
| 2026-04-18 07:36 | 22.17465 | 118.87839 | 33363 ft | 462 kts | 275° |
| 2026-04-18 07:36 | 22.17878 | 118.84402 | 33744 ft | 461 kts | 275° |
| 2026-04-18 07:37 | 22.18286 | 118.80974 | 33882 ft | 459 kts | 275° |
| 2026-04-18 07:37 | 22.18692 | 118.77559 | 33892 ft | 457 kts | 275° |
| 2026-04-18 07:37 | 22.19493 | 118.70793 | 33899 ft | 456 kts | 275° |
| 2026-04-18 07:38 | 22.20288 | 118.64034 | 33901 ft | 456 kts | 275° |
| 2026-04-18 07:38 | 22.21087 | 118.57235 | 33896 ft | 456 kts | 275° |
| 2026-04-18 07:39 | 22.21885 | 118.50447 | 33900 ft | 456 kts | 275° |
| 2026-04-18 07:39 | 22.22679 | 118.43662 | 33896 ft | 456 kts | 274° |
| 2026-04-18 07:40 | 22.23468 | 118.36865 | 33899 ft | 455 kts | 274° |
| 2026-04-18 07:40 | 22.24248 | 118.30127 | 33896 ft | 456 kts | 274° |
| 2026-04-18 07:41 | 22.25034 | 118.23332 | 33899 ft | 455 kts | 275° |
| 2026-04-18 07:41 | 22.25817 | 118.16535 | 33902 ft | 456 kts | 275° |
| 2026-04-18 07:42 | 22.26595 | 118.09743 | 33900 ft | 456 kts | 274° |
| 2026-04-18 07:42 | 22.27342 | 118.02935 | 33897 ft | 456 kts | 274° |
| 2026-04-18 07:43 | 22.28091 | 117.96119 | 33894 ft | 456 kts | 274° |
| 2026-04-18 07:43 | 22.28860 | 117.89362 | 33896 ft | 455 kts | 274° |
| 2026-04-18 07:44 | 22.29640 | 117.82568 | 33898 ft | 455 kts | 274° |
| 2026-04-18 07:44 | 22.30414 | 117.75776 | 33888 ft | 455 kts | 274° |
| 2026-04-18 07:45 | 22.31179 | 117.69021 | 33886 ft | 455 kts | 274° |
| 2026-04-18 07:45 | 22.31945 | 117.62220 | 33886 ft | 455 kts | 274° |
| 2026-04-18 07:46 | 22.32707 | 117.55434 | 33886 ft | 454 kts | 274° |
| 2026-04-18 07:46 | 22.33230 | 117.48695 | 33895 ft | 452 kts | 268° |
| 2026-04-18 07:47 | 22.33199 | 117.41905 | 33889 ft | 451 kts | 267° |
| 2026-04-18 07:47 | 22.33071 | 117.35112 | 33886 ft | 451 kts | 267° |
| 2026-04-18 07:48 | 22.32934 | 117.28383 | 33890 ft | 451 kts | 267° |
| 2026-04-18 07:48 | 22.32801 | 117.21592 | 33886 ft | 450 kts | 267° |
| 2026-04-18 07:49 | 22.32672 | 117.14821 | 33885 ft | 450 kts | 267° |
| 2026-04-18 07:49 | 22.32542 | 117.08105 | 33893 ft | 449 kts | 267° |
| 2026-04-18 07:50 | 22.32408 | 117.01363 | 33886 ft | 448 kts | 267° |
| 2026-04-18 07:50 | 22.32273 | 116.94605 | 33889 ft | 449 kts | 266° |
| 2026-04-18 07:51 | 22.32134 | 116.87898 | 33885 ft | 448 kts | 266° |
| 2026-04-18 07:51 | 22.31992 | 116.81160 | 33893 ft | 448 kts | 267° |
| 2026-04-18 07:52 | 22.31845 | 116.74417 | 33885 ft | 448 kts | 266° |
| 2026-04-18 07:52 | 22.31699 | 116.67730 | 33891 ft | 447 kts | 266° |
| 2026-04-18 07:53 | 22.31549 | 116.61004 | 33886 ft | 447 kts | 266° |
| 2026-04-18 07:53 | 22.31397 | 116.54286 | 33886 ft | 447 kts | 266° |
| 2026-04-18 07:54 | 22.31242 | 116.47605 | 33888 ft | 447 kts | 266° |
| 2026-04-18 07:54 | 22.31085 | 116.40898 | 33886 ft | 447 kts | 266° |
| 2026-04-18 07:55 | 22.30923 | 116.34180 | 33885 ft | 447 kts | 266° |
| 2026-04-18 07:55 | 22.30758 | 116.27460 | 33896 ft | 448 kts | 266° |
| 2026-04-18 07:56 | 22.30591 | 116.20739 | 33902 ft | 448 kts | 266° |
| 2026-04-18 07:56 | 22.30422 | 116.14016 | 33902 ft | 448 kts | 266° |
| 2026-04-18 07:57 | 22.30250 | 116.07337 | 33901 ft | 448 kts | 266° |
| 2026-04-18 07:57 | 22.30073 | 116.00610 | 33897 ft | 447 kts | 266° |
| 2026-04-18 07:58 | 22.29809 | 115.90567 | 33844 ft | 445 kts | 266° |
| 2026-04-18 07:58 | 22.29718 | 115.87200 | 33611 ft | 449 kts | 266° |
| 2026-04-18 07:59 | 22.29626 | 115.83821 | 33362 ft | 452 kts | 266° |
| 2026-04-18 07:59 | 22.29533 | 115.80424 | 33050 ft | 451 kts | 266° |
| 2026-04-18 07:59 | 22.29443 | 115.77044 | 32201 ft | 451 kts | 266° |
| 2026-04-18 07:59 | 22.29354 | 115.73636 | 31254 ft | 452 kts | 266° |
| 2026-04-18 08:00 | 22.29264 | 115.70247 | 30283 ft | 454 kts | 266° |
| 2026-04-18 08:00 | 22.29193 | 115.67498 | 29466 ft | 456 kts | 266° |
| 2026-04-18 08:00 | 22.29106 | 115.64124 | 28697 ft | 454 kts | 267° |
| 2026-04-18 08:00 | 22.29014 | 115.60715 | 27937 ft | 450 kts | 267° |
| 2026-04-18 08:01 | 22.28920 | 115.57349 | 27198 ft | 447 kts | 267° |
| 2026-04-18 08:01 | 22.28826 | 115.54003 | 26478 ft | 443 kts | 267° |
| 2026-04-18 08:01 | 22.28732 | 115.50683 | 25745 ft | 440 kts | 268° |
| 2026-04-18 08:01 | 22.28640 | 115.47389 | 25027 ft | 437 kts | 268° |
| 2026-04-18 08:02 | 22.28547 | 115.44132 | 24296 ft | 434 kts | 268° |
| 2026-04-18 08:02 | 22.28454 | 115.40874 | 23584 ft | 432 kts | 268° |
| 2026-04-18 08:02 | 22.28359 | 115.37648 | 22875 ft | 429 kts | 268° |
| 2026-04-18 08:02 | 22.28267 | 115.34480 | 22169 ft | 426 kts | 268° |
| 2026-04-18 08:03 | 22.28176 | 115.31286 | 21462 ft | 424 kts | 268° |
| 2026-04-18 08:03 | 22.28085 | 115.28119 | 20753 ft | 421 kts | 268° |
| 2026-04-18 08:03 | 22.27990 | 115.24958 | 20033 ft | 419 kts | 268° |
| 2026-04-18 08:03 | 22.27895 | 115.21819 | 19307 ft | 417 kts | 268° |
| 2026-04-18 08:04 | 22.27799 | 115.18689 | 18574 ft | 415 kts | 268° |
| 2026-04-18 08:04 | 22.27702 | 115.15582 | 17832 ft | 413 kts | 268° |
| 2026-04-18 08:04 | 22.27607 | 115.12535 | 17103 ft | 409 kts | 268° |
| 2026-04-18 08:04 | 22.27511 | 115.09474 | 16353 ft | 406 kts | 268° |
| 2026-04-18 08:05 | 22.27415 | 115.06437 | 15602 ft | 402 kts | 268° |
| 2026-04-18 08:05 | 22.27319 | 115.03436 | 14848 ft | 398 kts | 268° |
| 2026-04-18 08:05 | 22.27223 | 115.00458 | 14101 ft | 394 kts | 268° |
| 2026-04-18 08:05 | 22.27129 | 114.97517 | 13352 ft | 390 kts | 268° |
| 2026-04-18 08:06 | 22.27034 | 114.94603 | 12608 ft | 386 kts | 268° |
| 2026-04-18 08:06 | 22.26941 | 114.91738 | 12232 ft | 372 kts | 268° |
| 2026-04-18 08:06 | 22.26853 | 114.89023 | 12098 ft | 353 kts | 268° |
| 2026-04-18 08:06 | 22.26767 | 114.86468 | 11959 ft | 335 kts | 268° |
| 2026-04-18 08:07 | 22.26684 | 114.84010 | 11831 ft | 319 kts | 268° |
| 2026-04-18 08:07 | 22.26605 | 114.81657 | 11589 ft | 310 kts | 268° |
| 2026-04-18 08:07 | 22.26524 | 114.79329 | 11131 ft | 308 kts | 268° |
| 2026-04-18 08:07 | 22.26267 | 114.77038 | 10711 ft | 307 kts | 260° |
| 2026-04-18 08:08 | 22.25836 | 114.74760 | 10454 ft | 317 kts | 259° |
| 2026-04-18 08:08 | 22.25370 | 114.72435 | 10217 ft | 312 kts | 258° |
| 2026-04-18 08:08 | 22.24923 | 114.70208 | 10023 ft | 300 kts | 259° |
| 2026-04-18 08:08 | 22.24487 | 114.68032 | 9718 ft | 292 kts | 259° |
| 2026-04-18 08:09 | 22.24063 | 114.65904 | 9353 ft | 286 kts | 259° |
| 2026-04-18 08:09 | 22.23651 | 114.63828 | 9081 ft | 280 kts | 259° |
| 2026-04-18 08:09 | 22.23242 | 114.61769 | 8808 ft | 280 kts | 259° |
| 2026-04-18 08:09 | 22.22833 | 114.59721 | 8534 ft | 278 kts | 259° |
| 2026-04-18 08:10 | 22.22427 | 114.57685 | 8272 ft | 277 kts | 259° |
| 2026-04-18 08:10 | 22.22026 | 114.55681 | 8009 ft | 275 kts | 259° |
| 2026-04-18 08:10 | 22.21623 | 114.53661 | 7735 ft | 274 kts | 258° |
| 2026-04-18 08:10 | 22.21220 | 114.51644 | 7462 ft | 273 kts | 259° |
| 2026-04-18 08:11 | 22.20821 | 114.49645 | 7202 ft | 272 kts | 258° |
| 2026-04-18 08:11 | 22.20421 | 114.47645 | 6949 ft | 271 kts | 258° |
| 2026-04-18 08:11 | 22.20024 | 114.45659 | 6671 ft | 269 kts | 259° |
| 2026-04-18 08:11 | 22.19650 | 114.43718 | 6411 ft | 269 kts | 261° |
| 2026-04-18 08:12 | 22.19622 | 114.41711 | 6153 ft | 267 kts | 281° |
| 2026-04-18 08:12 | 22.20389 | 114.39899 | 5931 ft | 266 kts | 307° |
| 2026-04-18 08:12 | 22.21288 | 114.39001 | 5859 ft | 269 kts | 323° |
| 2026-04-18 08:12 | 22.23576 | 114.37926 | 5688 ft | 272 kts | 338° |
| 2026-04-18 08:13 | 22.25373 | 114.37290 | 5545 ft | 272 kts | 339° |
| 2026-04-18 08:13 | 22.27167 | 114.36653 | 5308 ft | 270 kts | 339° |
| 2026-04-18 08:13 | 22.28951 | 114.36013 | 5129 ft | 270 kts | 339° |
| 2026-04-18 08:13 | 22.30128 | 114.35583 | 4998 ft | 269 kts | 338° |
| 2026-04-18 08:14 | 22.31905 | 114.34926 | 4866 ft | 270 kts | 338° |
| 2026-04-18 08:14 | 22.33683 | 114.34270 | 4742 ft | 270 kts | 338° |
| 2026-04-18 08:14 | 22.35462 | 114.33622 | 4609 ft | 269 kts | 338° |
| 2026-04-18 08:14 | 22.37241 | 114.32966 | 4513 ft | 269 kts | 338° |
| 2026-04-18 08:15 | 22.38924 | 114.32109 | 4498 ft | 266 kts | 322° |
| 2026-04-18 08:15 | 22.40134 | 114.30666 | 4511 ft | 262 kts | 296° |
| 2026-04-18 08:15 | 22.40696 | 114.28814 | 4504 ft | 259 kts | 281° |
| 2026-04-18 08:15 | 22.41047 | 114.26904 | 4505 ft | 258 kts | 280° |
| 2026-04-18 08:16 | 22.41368 | 114.25059 | 4498 ft | 241 kts | 280° |
| 2026-04-18 08:16 | 22.41671 | 114.23345 | 4498 ft | 225 kts | 280° |
| 2026-04-18 08:16 | 22.41959 | 114.21741 | 4494 ft | 209 kts | 280° |
| 2026-04-18 08:16 | 22.42079 | 114.20258 | 4497 ft | 193 kts | 267° |
| 2026-04-18 08:17 | 22.41893 | 114.18837 | 4400 ft | 189 kts | 257° |
| 2026-04-18 08:17 | 22.41530 | 114.17482 | 4315 ft | 186 kts | 253° |
| 2026-04-18 08:17 | 22.41112 | 114.16165 | 4337 ft | 185 kts | 251° |
| 2026-04-18 08:17 | 22.40697 | 114.14871 | 4345 ft | 185 kts | 253° |
| 2026-04-18 08:18 | 22.40281 | 114.13558 | 4340 ft | 183 kts | 252° |
| 2026-04-18 08:18 | 22.39864 | 114.12247 | 4253 ft | 184 kts | 251° |
| 2026-04-18 08:18 | 22.39447 | 114.10949 | 3991 ft | 183 kts | 252° |
| 2026-04-18 08:18 | 22.39030 | 114.09643 | 3666 ft | 184 kts | 252° |
| 2026-04-18 08:19 | 22.38615 | 114.08341 | 3377 ft | 182 kts | 252° |
| 2026-04-18 08:19 | 22.38201 | 114.07053 | 3107 ft | 181 kts | 251° |
| 2026-04-18 08:19 | 22.37793 | 114.05778 | 2857 ft | 177 kts | 250° |
| 2026-04-18 08:19 | 22.37394 | 114.04526 | 2608 ft | 174 kts | 249° |
| 2026-04-18 08:20 | 22.37006 | 114.03320 | 2386 ft | 165 kts | 248° |
| 2026-04-18 08:20 | 22.36641 | 114.02185 | 2156 ft | 154 kts | 249° |
| 2026-04-18 08:20 | 22.36301 | 114.01125 | 1959 ft | 149 kts | 248° |
| 2026-04-18 08:20 | 22.35970 | 114.00096 | 1743 ft | 141 kts | 248° |
| 2026-04-18 08:21 | 22.35649 | 113.99100 | 1567 ft | 140 kts | 249° |
| 2026-04-18 08:21 | 22.35329 | 113.98101 | 1372 ft | 140 kts | 250° |
| 2026-04-18 08:21 | 22.35009 | 113.97101 | 1179 ft | 140 kts | 251° |
| 2026-04-18 08:21 | 22.34691 | 113.96113 | 995 ft | 139 kts | 250° |
| 2026-04-18 08:22 | 22.34371 | 113.95132 | 808 ft | 138 kts | 250° |
| 2026-04-18 08:22 | 22.34061 | 113.94166 | 631 ft | 138 kts | 251° |
| 2026-04-18 08:22 | 22.33746 | 113.93185 | 423 ft | 137 kts | 250° |
| 2026-04-18 08:22 | 22.33434 | 113.92207 | 239 ft | 137 kts | 251° |
| 2026-04-18 08:23 | 22.33128 | 113.91243 | 58 ft | 138 kts | 251° |
| 2026-04-18 08:23 | 22.32844 | 113.90357 | 39 ft | 96 kts | 251° |
| 2026-04-18 08:23 | 22.32694 | 113.89895 | 38 ft | 39 kts | 250° |
| 2026-04-18 08:23 | 22.32589 | 113.89648 | 38 ft | 35 kts | 233° |
| 2026-04-18 08:24 | 22.32504 | 113.89552 | 38 ft | 15 kts | 223° |
| 2026-04-18 08:24 | 22.32414 | 113.89507 | 38 ft | 15 kts | 175° |
| 2026-04-18 08:24 | 22.32333 | 113.89545 | 38 ft | 10 kts | 123° |
| 2026-04-18 08:24 | 22.32331 | 113.89623 | 38 ft | 11 kts | 73° |
| 2026-04-18 08:25 | 22.32359 | 113.89707 | 38 ft | 13 kts | 71° |
| 2026-04-18 08:25 | 22.32394 | 113.89814 | 38 ft | 16 kts | 71° |
| 2026-04-18 08:25 | 22.32434 | 113.89940 | 38 ft | 19 kts | 71° |
| 2026-04-18 08:25 | 22.32481 | 113.90084 | 37 ft | 22 kts | 71° |
| 2026-04-18 08:26 | 22.32534 | 113.90248 | 38 ft | 24 kts | 70° |
| 2026-04-18 08:26 | 22.32592 | 113.90430 | 38 ft | 27 kts | 71° |
| 2026-04-18 08:26 | 22.32656 | 113.90626 | 37 ft | 28 kts | 71° |
| 2026-04-18 08:26 | 22.32723 | 113.90835 | 39 ft | 30 kts | 71° |
| 2026-04-18 08:27 | 22.32794 | 113.91055 | 39 ft | 32 kts | 71° |
| 2026-04-18 08:27 | 22.32869 | 113.91290 | 39 ft | 34 kts | 71° |
| 2026-04-18 08:27 | 22.32949 | 113.91535 | 39 ft | 32 kts | 71° |
| 2026-04-18 08:27 | 22.33019 | 113.91754 | 39 ft | 32 kts | 71° |
| 2026-04-18 08:28 | 22.33085 | 113.91963 | 39 ft | 28 kts | 70° |
| 2026-04-18 08:28 | 22.33060 | 113.92075 | 39 ft | 12 kts | 150° |
| 2026-04-18 08:28 | 22.32973 | 113.92105 | 37 ft | 15 kts | 162° |
| 2026-04-18 08:28 | 22.32866 | 113.92145 | 39 ft | 18 kts | 160° |
| 2026-04-18 08:29 | 22.32740 | 113.92193 | 39 ft | 20 kts | 162° |
| 2026-04-18 08:29 | 22.32596 | 113.92245 | 38 ft | 23 kts | 160° |
| 2026-04-18 08:29 | 22.32435 | 113.92304 | 39 ft | 25 kts | 161° |
| 2026-04-18 08:29 | 22.32271 | 113.92365 | 38 ft | 24 kts | 161° |
| 2026-04-18 08:30 | 22.32151 | 113.92422 | 38 ft | 16 kts | 132° |
| 2026-04-18 08:30 | 22.32154 | 113.92532 | 38 ft | 16 kts | 75° |
| 2026-04-18 08:30 | 22.32187 | 113.92646 | 38 ft | 13 kts | 80° |
| 2026-04-18 08:30 | 22.32166 | 113.92696 | 38 ft | 5 kts | 152° |
| 2026-04-18 08:31 | 22.32149 | 113.92703 | 38 ft | 0 kts | 161° |
| 2026-04-18 08:32 | 22.32145 | 113.92704 | 39 ft | 4 kts | 161° |
| 2026-04-18 08:32 | 22.32083 | 113.92727 | 40 ft | 14 kts | 161° |
| 2026-04-18 08:32 | 22.31953 | 113.92776 | 40 ft | 23 kts | 161° |
| 2026-04-18 08:33 | 22.31809 | 113.92811 | 38 ft | 19 kts | 203° |
| 2026-04-18 08:33 | 22.31744 | 113.92685 | 37 ft | 21 kts | 251° |
| 2026-04-18 08:33 | 22.31693 | 113.92529 | 38 ft | 23 kts | 251° |
| 2026-04-18 08:33 | 22.31638 | 113.92357 | 38 ft | 25 kts | 251° |
| 2026-04-18 08:34 | 22.31584 | 113.92186 | 37 ft | 21 kts | 251° |
| 2026-04-18 08:34 | 22.31520 | 113.92076 | 38 ft | 10 kts | 193° |
| 2026-04-18 08:34 | 22.31446 | 113.92086 | 37 ft | 12 kts | 160° |
| 2026-04-18 08:34 | 22.31354 | 113.92122 | 38 ft | 15 kts | 160° |
| 2026-04-18 08:35 | 22.31243 | 113.92163 | 38 ft | 18 kts | 161° |
| 2026-04-18 08:35 | 22.31114 | 113.92212 | 38 ft | 21 kts | 162° |
| 2026-04-18 08:35 | 22.30966 | 113.92265 | 38 ft | 24 kts | 161° |
| 2026-04-18 08:35 | 22.30847 | 113.92310 | 38 ft | 17 kts | 161° |
| 2026-04-18 08:36 | 22.30748 | 113.92347 | 38 ft | 15 kts | 161° |
| 2026-04-18 08:36 | 22.30658 | 113.92415 | 38 ft | 16 kts | 110° |
| 2026-04-18 08:36 | 22.30686 | 113.92538 | 38 ft | 18 kts | 70° |
| 2026-04-18 08:36 | 22.30733 | 113.92677 | 38 ft | 21 kts | 71° |
| 2026-04-18 08:37 | 22.30807 | 113.92786 | 38 ft | 14 kts | 5° |
| 2026-04-18 08:37 | 22.30912 | 113.92766 | 38 ft | 17 kts | 1° |
| 2026-04-18 08:37 | 22.31020 | 113.92812 | 38 ft | 16 kts | 29° |
| 2026-04-18 08:37 | 22.31125 | 113.92868 | 38 ft | 18 kts | 26° |
| 2026-04-18 08:38 | 22.31200 | 113.92931 | 38 ft | 2 kts | 32° |
| 2026-04-18 08:38 | 22.31220 | 113.92938 | 38 ft | 2 kts | 2° |
| 2026-04-18 08:38 | 22.31224 | 113.92935 | 38 ft | 0 kts | 334° |
| 2026-04-18 08:38 | 22.31229 | 113.92932 | 38 ft | 3 kts | 330° |
| 2026-04-18 08:39 | 22.31257 | 113.92918 | 38 ft | 5 kts | 339° |
| 2026-04-18 08:39 | 22.31274 | 113.92911 | 38 ft | 1 kts | 340° |
| 2026-04-18 08:39 | 22.31277 | 113.92910 | 38 ft | 0 kts | 340° |